Time;durP1;ratioP1;P1;durP2;ratioP2;P2;SDS_P1;SDS_P2;PMS_P1;PMS_P2;Temp;Humidity;BMP_temperature;BMP_pressure;BME280_temperature;BME280_humidity;BME280_pressure;Samples;Min_cycle;Max_cycle;Signal;HPM_P1;HPM_P2
2023/05/03 00:02:04;;;;;;;1.85;1.75;;;7.80;99.90;;;;;;5003579;28;20626;-75
2023/05/03 00:04:30;;;;;;;1.48;1.38;;;7.80;99.90;;;;;;4975464;28;20025;-75
2023/05/03 00:06:56;;;;;;;1.80;1.70;;;7.80;99.90;;;;;;4990084;28;20038;-75
2023/05/03 00:09:22;;;;;;;1.40;1.30;;;7.70;99.90;;;;;;5013495;28;20037;-75
2023/05/03 00:11:48;;;;;;;1.92;1.50;;;7.70;99.90;;;;;;5013181;28;20371;-75
2023/05/03 00:14:14;;;;;;;1.42;1.33;;;7.60;99.90;;;;;;5012477;28;20033;-77
2023/05/03 00:16:39;;;;;;;1.80;1.70;;;7.60;99.90;;;;;;5005273;28;20036;-76
2023/05/03 00:19:05;;;;;;;1.60;1.50;;;7.60;99.90;;;;;;4978500;28;20075;-75
2023/05/03 00:21:31;;;;;;;1.58;1.48;;;7.60;99.90;;;;;;4982130;28;20073;-76
2023/05/03 00:23:56;;;;;;;1.80;1.70;;;7.60;99.90;;;;;;5006060;28;20053;-77
2023/05/03 00:26:22;;;;;;;1.30;1.20;;;7.60;99.90;;;;;;4994214;28;20442;-76
2023/05/03 00:28:48;;;;;;;1.83;1.45;;;7.70;99.90;;;;;;4993850;28;20030;-75
2023/05/03 00:31:13;;;;;;;1.92;1.77;;;7.60;99.90;;;;;;4976147;28;20036;-74
2023/05/03 00:33:39;;;;;;;1.83;1.73;;;7.60;99.90;;;;;;4973280;28;20031;-75
2023/05/03 00:36:09;;;;;;;1.95;1.85;;;7.60;99.90;;;;;;4996632;28;20021;-76
2023/05/03 00:38:35;;;;;;;2.58;2.33;;;7.60;99.90;;;;;;4996268;28;20027;-75
2023/05/03 00:41:02;;;;;;;2.03;1.80;;;7.60;99.90;;;;;;4992761;28;20025;-76
2023/05/03 00:43:28;;;;;;;2.75;2.00;;;7.60;99.90;;;;;;4992785;28;20027;-76
2023/05/03 00:45:54;;;;;;;1.77;1.67;;;7.60;99.90;;;;;;4989158;28;20089;-76
2023/05/03 00:48:20;;;;;;;1.70;1.60;;;7.60;99.90;;;;;;4973192;28;20030;-76
2023/05/03 00:50:46;;;;;;;1.98;1.80;;;7.60;99.90;;;;;;4993891;28;20022;-76
2023/05/03 00:53:16;;;;;;;2.00;1.80;;;7.60;99.90;;;;;;4992890;28;20550;-76
2023/05/03 00:55:43;;;;;;;2.08;1.80;;;7.60;99.90;;;;;;4992650;28;20081;-76
2023/05/03 00:58:09;;;;;;;2.00;1.90;;;7.60;99.90;;;;;;4992583;28;20058;-76
2023/05/03 01:00:38;;;;;;;1.70;1.60;;;7.50;99.90;;;;;;4975100;28;20035;-75
2023/05/03 01:03:04;;;;;;;2.22;2.03;;;7.50;99.90;;;;;;4992467;28;20031;-75
2023/05/03 01:05:52;;;;;;;2.42;2.22;;;7.40;99.90;;;;;;5005825;28;20010;-76
2023/05/03 01:08:25;;;;;;;2.88;2.53;;;7.40;99.90;;;;;;4998317;28;20030;-75
2023/05/03 01:10:59;;;;;;;2.30;2.10;;;7.30;99.90;;;;;;4994784;28;20045;-75
2023/05/03 01:13:45;;;;;;;2.33;2.03;;;7.30;99.90;;;;;;4975559;28;20038;-76
2023/05/03 01:16:43;;;;;;;2.38;2.17;;;7.30;99.90;;;;;;4994016;28;20029;-74
2023/05/03 01:19:28;;;;;;;2.33;2.13;;;7.30;99.90;;;;;;4986529;28;20026;-75
2023/05/03 01:22:09;;;;;;;2.40;1.95;;;7.20;99.90;;;;;;4993599;28;20022;-76
2023/05/03 01:24:37;;;;;;;3.45;2.80;;;7.20;99.90;;;;;;4992923;28;20046;-75
2023/05/03 01:27:04;;;;;;;2.95;2.65;;;7.20;99.90;;;;;;4976721;28;20081;-76
2023/05/03 01:29:29;;;;;;;2.63;2.42;;;7.20;99.90;;;;;;4957759;28;20138;-75
2023/05/03 01:32:00;;;;;;;2.72;2.40;;;7.20;99.90;;;;;;4976497;28;20054;-76
2023/05/03 01:34:36;;;;;;;2.53;2.05;;;7.20;99.90;;;;;;4992332;28;20033;-75
2023/05/03 01:37:06;;;;;;;2.50;2.30;;;7.20;99.90;;;;;;4998528;28;20034;-76
2023/05/03 01:39:44;;;;;;;2.45;2.25;;;7.20;99.90;;;;;;4996310;28;20023;-76
2023/05/03 01:42:11;;;;;;;2.90;2.05;;;7.30;99.90;;;;;;4995892;28;20026;-76
2023/05/03 01:44:38;;;;;;;2.28;2.08;;;7.50;99.90;;;;;;4995432;28;20569;-75
2023/05/03 01:47:04;;;;;;;1.95;1.70;;;7.60;99.90;;;;;;4993288;28;20056;-76
2023/05/03 01:49:29;;;;;;;2.97;2.33;;;7.70;99.90;;;;;;4980610;28;20026;-76
2023/05/03 01:51:55;;;;;;;2.17;1.98;;;7.80;99.90;;;;;;4976212;28;20102;-76
2023/05/03 01:54:21;;;;;;;2.15;2.05;;;7.80;99.90;;;;;;4975246;28;20026;-75
2023/05/03 01:56:47;;;;;;;2.58;2.35;;;7.90;99.90;;;;;;4977019;28;20098;-76
2023/05/03 01:59:12;;;;;;;2.60;2.40;;;7.90;99.90;;;;;;4976191;28;20031;-75
2023/05/03 02:01:38;;;;;;;2.85;2.47;;;8.00;99.90;;;;;;4975803;28;20058;-75
2023/05/03 02:04:03;;;;;;;2.88;2.67;;;8.00;99.90;;;;;;4985963;28;20033;-77
2023/05/03 02:06:32;;;;;;;2.88;2.60;;;8.10;99.90;;;;;;4982042;28;20038;-76
2023/05/03 02:08:58;;;;;;;2.00;1.90;;;8.20;99.90;;;;;;4980502;28;20054;-75
2023/05/03 02:11:23;;;;;;;2.35;2.15;;;8.20;99.90;;;;;;4999360;28;20045;-75
2023/05/03 02:13:49;;;;;;;2.30;2.10;;;8.20;99.90;;;;;;4980224;28;20026;-76
2023/05/03 02:16:16;;;;;;;2.30;2.10;;;8.30;99.90;;;;;;4996382;28;20022;-76
2023/05/03 02:18:42;;;;;;;2.22;1.98;;;8.30;99.90;;;;;;4981753;28;20030;-75
2023/05/03 02:21:09;;;;;;;2.03;1.60;;;8.30;99.90;;;;;;4976925;28;20042;-76
2023/05/03 02:23:35;;;;;;;2.33;2.13;;;8.20;99.90;;;;;;4976254;28;20495;-76
2023/05/03 02:26:01;;;;;;;1.92;1.83;;;8.20;99.90;;;;;;4975343;28;20023;-75
2023/05/03 02:28:27;;;;;;;1.80;1.65;;;8.10;99.90;;;;;;4975979;28;20037;-77
2023/05/03 02:30:52;;;;;;;2.00;1.80;;;8.10;99.90;;;;;;4958298;28;20091;-75
2023/05/03 02:33:18;;;;;;;2.28;2.08;;;8.10;99.90;;;;;;4975096;28;20029;-76
2023/05/03 02:35:44;;;;;;;1.80;1.70;;;8.00;99.90;;;;;;5001334;28;20027;-75
2023/05/03 02:38:10;;;;;;;2.28;2.00;;;8.00;99.90;;;;;;5013527;28;20071;-76
2023/05/03 02:40:35;;;;;;;2.00;1.90;;;7.90;99.90;;;;;;4977304;28;20118;-76
2023/05/03 02:43:02;;;;;;;1.73;1.63;;;7.90;99.90;;;;;;5001215;28;20026;-75
2023/05/03 02:45:28;;;;;;;2.03;1.92;;;8.00;99.90;;;;;;5001678;28;20025;-75
2023/05/03 02:47:54;;;;;;;2.17;1.85;;;8.00;99.90;;;;;;4992349;28;20442;-76
2023/05/03 02:50:19;;;;;;;1.70;1.60;;;8.00;99.90;;;;;;4984760;28;20550;-75
2023/05/03 02:52:45;;;;;;;1.73;1.50;;;8.00;99.90;;;;;;4964629;28;20034;-75
2023/05/03 02:55:11;;;;;;;1.75;1.65;;;8.00;99.90;;;;;;4975054;28;20089;-76
2023/05/03 02:57:36;;;;;;;1.58;1.48;;;8.00;99.90;;;;;;4977468;28;20030;-76
2023/05/03 03:00:04;;;;;;;1.58;1.48;;;8.00;99.90;;;;;;4984856;28;20073;-76
2023/05/03 03:02:30;;;;;;;1.88;1.77;;;7.90;99.90;;;;;;4998185;28;20042;-76
2023/05/03 03:04:55;;;;;;;2.38;2.17;;;7.90;99.90;;;;;;5001927;28;20041;-77
2023/05/03 03:07:21;;;;;;;2.03;1.83;;;7.90;99.90;;;;;;5009212;28;20065;-75
2023/05/03 03:09:46;;;;;;;1.60;1.50;;;7.90;99.90;;;;;;5010712;28;20101;-75
2023/05/03 03:12:12;;;;;;;2.03;1.83;;;7.90;99.90;;;;;;4996253;28;20100;-75
2023/05/03 03:14:38;;;;;;;2.55;2.08;;;7.90;99.90;;;;;;4977275;28;20740;-74
2023/05/03 03:17:07;;;;;;;2.42;1.85;;;7.80;99.90;;;;;;4991095;28;20034;-75
2023/05/03 03:19:33;;;;;;;2.30;2.10;;;7.80;99.90;;;;;;4984947;28;20073;-76
2023/05/03 03:21:59;;;;;;;1.98;1.52;;;7.80;99.90;;;;;;4975732;28;20023;-76
2023/05/03 03:24:25;;;;;;;1.48;1.38;;;7.80;99.90;;;;;;4992964;28;20113;-76
2023/05/03 03:26:51;;;;;;;1.67;1.58;;;7.70;99.90;;;;;;4993979;28;20220;-76
2023/05/03 03:29:16;;;;;;;2.50;1.95;;;7.60;99.90;;;;;;4992906;28;20050;-76
2023/05/03 03:31:42;;;;;;;2.58;1.80;;;7.60;99.90;;;;;;4978584;28;20031;-76
2023/05/03 03:34:08;;;;;;;1.80;1.65;;;7.50;99.90;;;;;;4991141;28;20030;-75
2023/05/03 03:36:33;;;;;;;2.08;1.63;;;7.40;99.90;;;;;;4993467;28;20058;-76
2023/05/03 03:38:59;;;;;;;3.05;2.38;;;7.40;99.90;;;;;;4994339;28;20023;-75
2023/05/03 03:41:28;;;;;;;2.38;2.10;;;7.30;99.90;;;;;;4996643;28;20022;-76
2023/05/03 03:43:53;;;;;;;2.20;2.00;;;7.20;99.90;;;;;;4985272;28;20022;-76
2023/05/03 03:46:19;;;;;;;1.73;1.63;;;7.20;99.90;;;;;;5005683;28;20101;-76
2023/05/03 03:48:45;;;;;;;1.77;1.60;;;7.20;99.90;;;;;;4998368;28;20053;-76
2023/05/03 03:51:11;;;;;;;2.90;1.80;;;7.10;99.90;;;;;;4985095;28;20043;-75
2023/05/03 03:53:36;;;;;;;3.08;2.03;;;7.10;99.90;;;;;;4989822;28;20034;-76
2023/05/03 03:56:02;;;;;;;2.17;1.98;;;7.10;99.90;;;;;;4985847;28;20023;-74
2023/05/03 03:58:28;;;;;;;2.47;2.28;;;7.10;99.90;;;;;;4985586;28;20401;-74
2023/05/03 04:00:53;;;;;;;2.33;2.10;;;7.10;99.90;;;;;;4982605;28;20435;-75
2023/05/03 04:03:19;;;;;;;1.80;1.60;;;7.20;99.90;;;;;;4958228;28;20387;-76
2023/05/03 04:05:45;;;;;;;2.70;2.28;;;7.20;99.90;;;;;;4957174;28;20053;-76
2023/05/03 04:08:10;;;;;;;2.00;1.88;;;7.20;99.90;;;;;;4975156;28;20030;-75
2023/05/03 04:10:36;;;;;;;1.73;1.60;;;7.20;99.90;;;;;;4957557;28;20502;-75
2023/05/03 04:13:02;;;;;;;1.80;1.70;;;7.20;99.90;;;;;;4971158;28;20030;-74
2023/05/03 04:15:28;;;;;;;2.85;2.58;;;7.20;99.90;;;;;;4981558;28;20038;-77
2023/05/03 04:17:53;;;;;;;3.30;3.00;;;7.20;99.90;;;;;;4986072;28;20026;-75
2023/05/03 04:20:20;;;;;;;3.72;3.20;;;7.20;99.90;;;;;;4984999;28;20019;-76
2023/05/03 04:22:46;;;;;;;3.15;2.47;;;7.30;99.90;;;;;;4982388;28;20026;-76
2023/05/03 04:25:15;;;;;;;2.88;2.40;;;7.30;99.90;;;;;;4974637;28;20106;-75
2023/05/03 04:27:42;;;;;;;3.40;2.50;;;7.30;99.90;;;;;;4974393;28;20038;-75
2023/05/03 04:30:09;;;;;;;2.67;2.13;;;7.40;99.90;;;;;;4957986;28;20118;-76
2023/05/03 04:32:36;;;;;;;2.97;2.28;;;7.50;99.90;;;;;;4976192;28;20078;-75
2023/05/03 04:35:07;;;;;;;2.55;2.10;;;7.60;99.90;;;;;;4980219;28;20026;-76
2023/05/03 04:37:32;;;;;;;2.38;2.05;;;7.80;99.90;;;;;;4982989;28;20030;-75
2023/05/03 04:39:58;;;;;;;4.00;3.15;;;7.90;99.90;;;;;;4995445;28;20045;-75
2023/05/03 04:42:24;;;;;;;5.60;4.25;;;8.10;99.90;;;;;;4994988;28;20061;-76
2023/05/03 04:44:50;;;;;;;5.70;4.15;;;8.20;99.90;;;;;;4974142;28;20534;-75
2023/05/03 04:47:16;;;;;;;4.32;3.20;;;8.20;99.90;;;;;;4982713;28;20087;-75
2023/05/03 04:49:42;;;;;;;3.50;3.13;;;8.20;99.90;;;;;;4991231;28;20042;-76
2023/05/03 04:52:09;;;;;;;2.95;2.35;;;8.30;99.90;;;;;;4994372;28;20026;-76
2023/05/03 04:54:34;;;;;;;4.65;3.67;;;8.30;99.90;;;;;;4992344;28;20499;-75
2023/05/03 04:57:00;;;;;;;4.97;4.13;;;8.40;99.90;;;;;;4993609;28;20034;-76
2023/05/03 04:59:26;;;;;;;5.32;3.95;;;8.30;99.90;;;;;;4976163;28;20034;-74
2023/05/03 05:01:51;;;;;;;5.07;4.07;;;8.30;99.90;;;;;;4988287;28;20015;-76
2023/05/03 05:04:17;;;;;;;7.22;5.30;;;8.30;99.90;;;;;;4979204;28;20394;-75
2023/05/03 05:06:43;;;;;;;6.70;5.25;;;8.20;99.90;;;;;;4977983;28;20038;-75
2023/05/03 05:09:22;;;;;;;6.85;5.78;;;8.20;99.90;;;;;;4977669;28;20093;-76
2023/05/03 05:11:48;;;;;;;7.05;6.10;;;8.20;99.90;;;;;;4977792;28;20067;-76
2023/05/03 05:14:14;;;;;;;8.00;6.35;;;8.20;99.90;;;;;;4976629;28;20101;-75
2023/05/03 05:16:40;;;;;;;9.55;7.53;;;8.20;99.90;;;;;;4961738;28;20421;-75
2023/05/03 05:19:06;;;;;;;10.63;8.65;;;8.20;99.90;;;;;;4985115;28;20039;-76
2023/05/03 05:21:32;;;;;;;11.05;8.52;;;8.20;99.90;;;;;;4977834;28;20027;-76
2023/05/03 05:23:58;;;;;;;9.93;7.32;;;8.30;99.90;;;;;;4976896;28;20027;-76
2023/05/03 05:26:24;;;;;;;8.13;6.40;;;8.30;99.90;;;;;;4977049;28;20395;-76
2023/05/03 05:28:50;;;;;;;7.93;6.15;;;8.30;99.90;;;;;;4992073;28;20030;-76
2023/05/03 05:31:16;;;;;;;7.30;5.82;;;8.30;99.90;;;;;;4996262;28;20498;-76
2023/05/03 05:33:42;;;;;;;5.80;4.80;;;8.40;99.90;;;;;;4979016;28;20108;-75
2023/05/03 05:36:07;;;;;;;4.97;4.47;;;8.40;99.90;;;;;;4995990;28;20026;-76
2023/05/03 05:38:33;;;;;;;8.85;6.10;;;8.60;99.90;;;;;;5004856;28;20037;-76
2023/05/03 05:40:59;;;;;;;8.15;6.35;;;8.80;99.90;;;;;;5005980;28;20030;-75
2023/05/03 05:43:24;;;;;;;7.63;5.88;;;8.90;99.90;;;;;;4996583;28;20057;-76
2023/05/03 05:45:50;;;;;;;10.25;7.32;;;8.90;99.90;;;;;;5005200;28;20384;-77
2023/05/03 05:48:16;;;;;;;11.10;7.97;;;8.80;99.90;;;;;;5005335;28;20030;-75
2023/05/03 05:50:41;;;;;;;11.13;8.15;;;8.70;99.90;;;;;;4998766;28;20053;-76
2023/05/03 05:53:08;;;;;;;7.22;6.10;;;8.60;99.90;;;;;;4998374;28;20113;-76
2023/05/03 05:55:34;;;;;;;7.32;5.80;;;8.70;99.90;;;;;;4994737;28;20104;-76
2023/05/03 05:58:00;;;;;;;8.32;6.28;;;8.80;99.90;;;;;;4990774;28;20023;-75
2023/05/03 06:00:26;;;;;;;7.53;5.25;;;8.90;99.90;;;;;;4971843;28;20076;-75
2023/05/03 06:02:51;;;;;;;7.40;5.15;;;8.90;99.90;;;;;;4995977;28;20023;-76
2023/05/03 06:05:20;;;;;;;12.07;8.02;;;8.90;99.90;;;;;;4995705;28;20030;-75
2023/05/03 06:07:46;;;;;;;10.48;8.27;;;8.90;99.90;;;;;;4997143;28;20030;-76
2023/05/03 06:10:11;;;;;;;11.23;8.45;;;8.80;99.90;;;;;;4995934;28;20018;-75
2023/05/03 06:12:37;;;;;;;7.13;5.82;;;8.80;99.90;;;;;;4996001;28;20027;-77
2023/05/03 06:15:04;;;;;;;6.47;5.15;;;8.80;99.90;;;;;;4994454;28;20034;-76
2023/05/03 06:17:29;;;;;;;5.97;4.75;;;9.00;99.90;;;;;;4988875;28;20019;-76
2023/05/03 06:19:56;;;;;;;7.95;5.72;;;9.00;99.90;;;;;;4995515;28;20026;-76
2023/05/03 06:22:21;;;;;;;5.57;4.32;;;9.00;99.90;;;;;;4995801;28;20097;-76
2023/05/03 06:24:47;;;;;;;6.18;4.45;;;9.10;99.90;;;;;;4995343;28;20129;-75
2023/05/03 06:27:13;;;;;;;11.23;8.07;;;9.20;99.90;;;;;;5001207;28;20033;-76
2023/05/03 06:29:39;;;;;;;9.00;7.32;;;9.20;99.90;;;;;;4999555;28;20171;-76
2023/05/03 06:32:05;;;;;;;13.77;9.82;;;9.20;99.90;;;;;;4995154;28;20025;-77
2023/05/03 06:34:30;;;;;;;10.30;7.65;;;9.10;99.90;;;;;;4994052;28;20026;-75
2023/05/03 06:36:56;;;;;;;13.00;8.20;;;9.00;99.90;;;;;;4997199;28;20053;-77
2023/05/03 06:39:22;;;;;;;12.23;8.43;;;8.90;99.90;;;;;;4993932;28;20376;-76
2023/05/03 06:41:47;;;;;;;14.40;9.18;;;8.80;99.90;;;;;;4994923;28;20156;-77
2023/05/03 06:44:16;;;;;;;14.30;9.27;;;8.80;99.90;;;;;;4985908;28;20041;-76
2023/05/03 06:46:42;;;;;;;15.73;10.23;;;8.80;99.90;;;;;;4991731;28;20033;-77
2023/05/03 06:49:07;;;;;;;17.05;11.13;;;8.80;99.90;;;;;;4976061;28;20584;-77
2023/05/03 06:51:33;;;;;;;14.00;9.00;;;8.80;99.90;;;;;;4976039;28;20065;-77
2023/05/03 06:54:05;;;;;;;14.70;9.25;;;8.90;99.90;;;;;;4975078;28;20122;-76
2023/05/03 06:56:34;;;;;;;11.95;8.02;;;9.00;99.90;;;;;;4977171;28;20082;-77
2023/05/03 06:59:00;;;;;;;13.23;8.70;;;9.10;99.90;;;;;;4988624;28;20042;-77
2023/05/03 07:01:26;;;;;;;10.88;7.22;;;9.00;99.90;;;;;;4994361;28;20027;-76
2023/05/03 07:03:52;;;;;;;11.07;7.07;;;9.00;99.90;;;;;;4994943;28;20045;-78
2023/05/03 07:06:18;;;;;;;12.35;7.95;;;9.10;99.90;;;;;;4993580;28;20102;-77
2023/05/03 07:08:44;;;;;;;14.70;9.15;;;9.10;99.90;;;;;;4994125;28;20038;-77
2023/05/03 07:11:10;;;;;;;17.27;11.43;;;9.00;99.90;;;;;;4995493;28;20027;-76
2023/05/03 07:13:36;;;;;;;16.52;10.13;;;9.00;99.90;;;;;;4995659;28;20030;-77
2023/05/03 07:16:01;;;;;;;15.30;10.75;;;9.00;99.90;;;;;;4974770;28;20096;-76
2023/05/03 07:18:27;;;;;;;15.20;9.93;;;9.10;99.90;;;;;;4986985;28;20495;-76
2023/05/03 07:20:53;;;;;;;12.80;8.52;;;9.20;99.90;;;;;;4997300;28;20030;-74
2023/05/03 07:23:19;;;;;;;13.10;9.32;;;9.20;99.90;;;;;;4976720;28;20555;-77
2023/05/03 07:25:45;;;;;;;13.75;9.07;;;9.30;99.90;;;;;;4958529;28;20499;-76
2023/05/03 07:28:11;;;;;;;13.25;9.15;;;9.40;99.90;;;;;;4977299;28;20041;-77
2023/05/03 07:30:36;;;;;;;18.02;12.07;;;9.50;99.90;;;;;;4977929;28;20033;-76
2023/05/03 07:33:02;;;;;;;17.50;10.77;;;9.50;99.90;;;;;;4987797;28;20034;-76
2023/05/03 07:35:28;;;;;;;15.13;10.27;;;9.50;99.90;;;;;;4995511;28;20558;-75
2023/05/03 07:37:55;;;;;;;10.80;8.18;;;9.50;99.90;;;;;;4995206;28;20103;-76
2023/05/03 07:40:21;;;;;;;13.90;8.75;;;9.70;99.90;;;;;;4987793;28;20025;-76
2023/05/03 07:42:47;;;;;;;10.07;6.60;;;9.90;99.90;;;;;;5010125;28;20018;-76
2023/05/03 07:45:12;;;;;;;7.43;5.55;;;10.00;99.90;;;;;;4995993;28;20085;-77
2023/05/03 07:47:38;;;;;;;6.88;4.75;;;10.20;99.90;;;;;;4988581;28;20022;-76
2023/05/03 07:50:05;;;;;;;7.32;4.97;;;10.40;99.90;;;;;;4997119;28;20230;-77
2023/05/03 07:52:38;;;;;;;5.57;4.07;;;10.60;99.90;;;;;;4998839;28;20054;-76
2023/05/03 07:55:05;;;;;;;6.45;4.50;;;11.00;99.90;;;;;;4997828;28;20061;-76
2023/05/03 07:57:32;;;;;;;6.65;4.65;;;11.10;99.90;;;;;;4977807;28;20411;-76
2023/05/03 08:00:03;;;;;;;5.57;3.55;;;11.40;99.90;;;;;;4990148;28;20027;-77
2023/05/03 08:02:29;;;;;;;8.15;4.85;;;11.60;99.90;;;;;;4977254;28;20026;-76
2023/05/03 08:04:57;;;;;;;5.97;4.30;;;11.90;99.90;;;;;;4994149;28;20439;-76
2023/05/03 08:07:23;;;;;;;6.78;4.55;;;11.90;99.90;;;;;;4976596;28;20089;-77
2023/05/03 08:09:52;;;;;;;7.85;5.20;;;12.00;99.90;;;;;;4995702;28;20113;-77
2023/05/03 08:12:20;;;;;;;7.15;4.65;;;11.80;99.90;;;;;;4994284;28;20030;-75
2023/05/03 08:14:46;;;;;;;8.68;5.22;;;11.70;99.90;;;;;;4994814;28;20042;-77
2023/05/03 08:17:12;;;;;;;5.57;4.30;;;11.60;99.90;;;;;;4996859;28;20486;-76
2023/05/03 08:19:37;;;;;;;6.45;4.20;;;11.70;99.90;;;;;;4989209;28;20027;-77
2023/05/03 08:22:06;;;;;;;7.57;5.72;;;11.60;99.90;;;;;;4997530;28;20026;-75
2023/05/03 08:24:31;;;;;;;8.50;5.93;;;11.60;99.90;;;;;;4996714;28;20483;-76
2023/05/03 08:26:57;;;;;;;6.50;4.85;;;11.70;99.90;;;;;;5009479;28;20031;-77
2023/05/03 08:29:23;;;;;;;5.13;3.85;;;11.80;99.90;;;;;;4984315;28;20030;-75
2023/05/03 08:31:49;;;;;;;5.20;4.20;;;12.10;99.90;;;;;;4997731;28;20022;-76
2023/05/03 08:34:14;;;;;;;4.85;3.70;;;12.40;99.90;;;;;;5005816;28;20046;-77
2023/05/03 08:36:40;;;;;;;4.47;3.55;;;12.70;99.90;;;;;;5000146;28;20385;-76
2023/05/03 08:39:10;;;;;;;5.22;4.28;;;13.00;99.90;;;;;;5002273;28;20030;-78
2023/05/03 08:41:39;;;;;;;5.03;4.00;;;13.30;99.90;;;;;;5008797;28;20030;-78
2023/05/03 08:44:10;;;;;;;4.78;4.00;;;13.50;99.90;;;;;;5004767;28;20054;-77
2023/05/03 08:46:37;;;;;;;7.47;5.30;;;13.40;99.90;;;;;;4979906;28;20038;-77
2023/05/03 08:49:05;;;;;;;5.75;4.30;;;13.30;99.90;;;;;;5002968;28;20423;-76
2023/05/03 08:51:33;;;;;;;4.75;3.90;;;13.30;99.90;;;;;;4999403;28;20057;-76
2023/05/03 08:54:01;;;;;;;6.85;5.43;;;13.30;99.90;;;;;;5001777;28;20028;-79
2023/05/03 08:56:41;;;;;;;9.35;6.30;;;13.10;99.90;;;;;;4988145;28;20022;-77
2023/05/03 08:59:11;;;;;;;6.75;5.22;;;13.00;99.90;;;;;;4978781;28;20427;-80
2023/05/03 09:01:44;;;;;;;6.25;4.88;;;12.90;99.90;;;;;;4966084;28;20054;-76
2023/05/03 09:04:10;;;;;;;12.38;7.20;;;12.90;99.90;;;;;;4986672;28;20434;-76
2023/05/03 09:06:40;;;;;;;10.85;6.55;;;12.90;99.90;;;;;;5001814;28;20088;-75
2023/05/03 09:09:18;;;;;;;7.88;5.80;;;13.00;99.90;;;;;;4993380;28;20026;-76
2023/05/03 09:11:44;;;;;;;8.35;6.57;;;13.30;99.90;;;;;;4996585;28;20048;-77
2023/05/03 09:14:11;;;;;;;15.50;12.00;;;13.50;99.70;;;;;;4981929;28;20550;-75
2023/05/03 09:16:38;;;;;;;12.63;8.95;;;13.40;98.50;;;;;;4991583;28;20464;-76
2023/05/03 09:19:10;;;;;;;10.10;7.78;;;13.30;99.00;;;;;;4996006;28;20019;-77
2023/05/03 09:21:36;;;;;;;;;;;13.30;98.90;;;;;;4983454;28;20065;-76
2023/05/03 09:24:10;;;;;;;11.07;8.65;;;13.30;98.90;;;;;;4999087;28;19913;-76
2023/05/03 09:26:37;;;;;;;11.85;9.00;;;13.30;98.90;;;;;;4998849;28;20030;-77
2023/05/03 09:29:04;;;;;;;13.25;9.63;;;13.50;98.70;;;;;;4981650;28;20034;-77
2023/05/03 09:31:31;;;;;;;13.98;10.65;;;13.70;98.30;;;;;;5001629;28;20467;-75
2023/05/03 09:33:57;;;;;;;12.70;9.68;;;14.00;97.40;;;;;;4998592;28;20106;-76
2023/05/03 09:36:24;;;;;;;14.40;11.88;;;14.20;96.60;;;;;;4998344;28;20113;-78
2023/05/03 09:38:51;;;;;;;15.75;11.43;;;14.20;95.60;;;;;;4998656;28;20026;-77
2023/05/03 09:41:27;;;;;;;9.05;8.00;;;14.30;94.90;;;;;;5001552;28;20026;-77
2023/05/03 09:43:55;;;;;;;16.00;12.95;;;14.50;95.30;;;;;;4969719;28;20026;-77
2023/05/03 09:46:23;;;;;;;13.13;10.20;;;14.70;94.10;;;;;;4998508;28;20022;-76
2023/05/03 09:48:51;;;;;;;11.20;9.13;;;14.60;94.10;;;;;;4990057;28;20037;-77
2023/05/03 09:51:18;;;;;;;11.85;9.55;;;14.70;94.50;;;;;;4980378;28;20030;-77
2023/05/03 09:53:43;;;;;;;12.55;9.18;;;15.00;94.40;;;;;;4982064;28;20034;-75
2023/05/03 09:56:13;;;;;;;10.38;8.20;;;15.10;94.10;;;;;;4980071;28;20027;-76
2023/05/03 09:58:40;;;;;;;9.80;8.27;;;15.20;94.00;;;;;;4966873;28;20081;-76
2023/05/03 10:01:07;;;;;;;9.32;6.95;;;15.40;93.70;;;;;;4997970;28;20062;-76
2023/05/03 10:03:43;;;;;;;14.45;10.98;;;15.60;93.50;;;;;;4997728;28;20030;-76
2023/05/03 10:06:37;;;;;;;12.55;10.23;;;15.70;91.70;;;;;;4989264;28;20062;-76
2023/05/03 10:09:26;;;;;;;9.68;8.15;;;15.50;92.40;;;;;;4986082;28;20049;-75
2023/05/03 10:11:53;;;;;;;15.10;11.02;;;15.70;92.70;;;;;;4971889;28;20030;-78
2023/05/03 10:14:20;;;;;;;16.67;12.88;;;16.00;91.90;;;;;;4996414;28;20037;-76
2023/05/03 10:16:49;;;;;;;12.32;10.48;;;15.80;91.30;;;;;;4995276;28;20174;-75
2023/05/03 10:19:34;;;;;;;14.73;12.38;;;15.60;92.00;;;;;;4997149;28;20026;-77
2023/05/03 10:22:05;;;;;;;12.57;10.18;;;15.70;91.50;;;;;;4997924;28;20029;-76
2023/05/03 10:24:55;;;;;;;15.82;13.15;;;15.40;92.00;;;;;;4997295;28;20030;-76
2023/05/03 10:27:21;;;;;;;13.38;10.25;;;15.20;92.00;;;;;;4996644;28;20034;-76
2023/05/03 10:29:49;;;;;;;11.60;9.85;;;15.40;92.40;;;;;;4981737;28;20443;-77
2023/05/03 10:32:34;;;;;;;15.05;12.30;;;15.50;92.10;;;;;;5005010;28;20034;-75
2023/05/03 10:35:12;;;;;;;13.07;9.82;;;15.60;91.70;;;;;;4999419;28;20026;-76
2023/05/03 10:37:41;;;;;;;14.02;10.35;;;15.70;91.70;;;;;;4997506;28;20080;-75
2023/05/03 10:40:14;;;;;;;15.70;11.40;;;16.00;91.60;;;;;;4973563;28;20029;-76
2023/05/03 10:42:51;;;;;;;17.63;13.07;;;16.20;91.20;;;;;;4993300;28;20025;-75
2023/05/03 10:45:25;;;;;;;19.35;13.68;;;16.40;90.80;;;;;;4972092;28;20439;-77
2023/05/03 10:48:09;;;;;;;16.95;12.10;;;16.40;90.20;;;;;;4985024;28;20030;-77
2023/05/03 10:50:35;;;;;;;17.67;14.10;;;16.40;90.40;;;;;;4993842;28;20030;-77
2023/05/03 10:53:01;;;;;;;18.88;15.05;;;16.40;90.40;;;;;;4979538;28;20026;-77
2023/05/03 10:55:27;;;;;;;20.30;14.38;;;16.30;89.80;;;;;;4984433;28;20023;-75
2023/05/03 10:57:57;;;;;;;19.42;14.13;;;16.10;89.00;;;;;;4976043;28;20396;-75
2023/05/03 11:00:31;;;;;;;17.60;11.95;;;16.00;90.00;;;;;;4975941;28;20019;-77
2023/05/03 11:03:22;;;;;;;13.38;9.23;;;16.00;90.30;;;;;;4975810;28;20027;-77
2023/05/03 11:05:48;;;;;;;16.13;12.45;;;16.30;90.40;;;;;;4983923;28;20022;-76
2023/05/03 11:08:17;;;;;;;15.73;12.18;;;16.40;88.50;;;;;;4995300;28;20377;-76
2023/05/03 11:10:44;;;;;;;17.85;14.23;;;16.50;87.80;;;;;;4997308;28;20022;-76
2023/05/03 11:13:11;;;;;;;16.90;12.95;;;16.30;87.50;;;;;;4995343;28;20022;-75
2023/05/03 11:15:37;;;;;;;17.92;13.70;;;16.20;88.40;;;;;;4975602;28;20057;-77
2023/05/03 11:18:08;;;;;;;13.60;11.13;;;16.50;88.30;;;;;;4987632;28;20072;-77
2023/05/03 11:20:35;;;;;;;15.73;11.15;;;16.90;88.00;;;;;;4977726;28;20030;-79
2023/05/03 11:23:01;;;;;;;12.65;9.70;;;17.20;85.20;;;;;;4994344;28;20424;-77
2023/05/03 11:25:27;;;;;;;10.57;8.63;;;17.00;84.90;;;;;;4975110;28;20698;-77
2023/05/03 11:27:53;;;;;;;14.60;11.68;;;16.80;85.70;;;;;;4994145;28;20472;-75
2023/05/03 11:30:19;;;;;;;12.38;8.38;;;16.90;84.20;;;;;;4999483;28;20030;-76
2023/05/03 11:32:45;;;;;;;13.63;10.65;;;16.60;84.60;;;;;;4997851;28;20464;-76
2023/05/03 11:35:16;;;;;;;11.57;9.10;;;16.60;85.90;;;;;;4976444;28;20109;-75
2023/05/03 11:37:43;;;;;;;13.77;10.73;;;17.00;86.00;;;;;;4998747;28;20036;-80
2023/05/03 11:40:17;;;;;;;17.73;13.95;;;17.30;84.30;;;;;;4996900;28;20061;-77
2023/05/03 11:42:59;;;;;;;20.58;13.88;;;17.40;81.60;;;;;;4997372;28;20085;-75
2023/05/03 11:45:30;;;;;;;15.90;11.80;;;17.20;82.90;;;;;;4995313;28;20026;-77
2023/05/03 11:47:56;;;;;;;16.13;12.13;;;17.20;83.30;;;;;;4982124;28;20102;-75
2023/05/03 11:50:54;;;;;;;14.60;11.30;;;17.20;83.40;;;;;;4978282;28;20515;-76
2023/05/03 11:53:22;;;;;;;12.88;11.00;;;17.30;82.80;;;;;;4915908;28;20051;-76
2023/05/03 11:55:52;;;;;;;10.80;8.88;;;17.40;81.40;;;;;;4956882;28;20460;-75
2023/05/03 11:58:20;;;;;;;11.05;8.85;;;17.30;80.20;;;;;;4974174;28;20026;-76
2023/05/03 12:00:48;;;;;;;10.55;8.75;;;17.30;78.70;;;;;;4973823;28;20169;-82
2023/05/03 12:03:18;;;;;;;12.80;11.48;;;17.40;78.90;;;;;;4973513;28;20014;-76
2023/05/03 12:05:45;;;;;;;14.68;11.80;;;17.60;78.40;;;;;;4973460;28;20022;-77
2023/05/03 12:08:11;;;;;;;17.02;13.70;;;17.60;79.50;;;;;;4973460;28;20027;-76
2023/05/03 12:10:37;;;;;;;15.45;12.57;;;17.40;79.00;;;;;;4973738;28;20030;-77
2023/05/03 12:13:02;;;;;;;17.38;13.32;;;17.00;80.90;;;;;;4956457;28;20105;-75
2023/05/03 12:15:36;;;;;;;14.18;11.18;;;17.10;81.40;;;;;;4974960;28;20046;-74
2023/05/03 12:18:11;;;;;;;12.10;9.43;;;17.10;80.90;;;;;;4974423;28;20123;-77
2023/05/03 12:20:38;;;;;;;8.98;7.75;;;17.00;80.80;;;;;;4975187;28;20026;-76
2023/05/03 12:23:09;;;;;;;12.65;9.55;;;17.20;79.70;;;;;;4974901;28;20035;-76
2023/05/03 12:25:36;;;;;;;8.02;7.15;;;17.40;78.10;;;;;;4974847;28;20388;-76
2023/05/03 12:28:03;;;;;;;7.68;6.93;;;17.80;76.90;;;;;;4974611;28;20019;-77
2023/05/03 12:30:30;;;;;;;8.50;7.55;;;18.10;74.70;;;;;;4981448;28;20031;-77
2023/05/03 12:32:56;;;;;;;7.40;6.70;;;18.50;73.30;;;;;;4994541;28;20022;-76
2023/05/03 12:35:22;;;;;;;4.68;4.22;;;18.60;71.80;;;;;;4992145;28;20033;-77
2023/05/03 12:37:49;;;;;;;9.65;7.75;;;18.70;70.60;;;;;;4975378;28;20048;-76
2023/05/03 12:40:16;;;;;;;8.43;7.50;;;18.90;68.90;;;;;;4957574;28;20031;-76
2023/05/03 12:42:42;;;;;;;8.52;6.65;;;19.00;68.40;;;;;;4992919;28;20026;-76
2023/05/03 12:45:10;;;;;;;5.85;5.03;;;19.00;68.20;;;;;;4994013;28;20443;-77
2023/05/03 12:47:38;;;;;;;9.32;7.50;;;19.00;67.80;;;;;;4994499;28;20705;-76
2023/05/03 12:50:04;;;;;;;7.65;6.75;;;19.10;66.50;;;;;;4974777;28;20045;-78
2023/05/03 12:52:33;;;;;;;10.18;8.27;;;19.00;66.80;;;;;;4975106;28;20057;-77